Time;durP1;ratioP1;P1;durP2;ratioP2;P2;SDS_P1;SDS_P2;PMS_P1;PMS_P2;Temp;Humidity;BMP_temperature;BMP_pressure;BME280_temperature;BME280_humidity;BME280_pressure;Samples;Min_cycle;Max_cycle;Signal;HPM_P1;HPM_P2
2023/01/24 00:00:10;;;;;;;48.95;29.63;;;21.50;86.90;;;;;;1883065;75;21203;-87
2023/01/24 00:02:41;;;;;;;41.35;29.52;;;21.40;86.60;;;;;;1896992;75;21192;-86
2023/01/24 00:05:12;;;;;;;45.12;30.12;;;21.40;86.70;;;;;;1886124;75;21179;-87
2023/01/24 00:07:43;;;;;;;37.95;29.35;;;21.30;86.60;;;;;;1902204;75;21094;-86
2023/01/24 00:10:14;;;;;;;39.75;27.60;;;21.30;86.80;;;;;;1896392;75;21169;-86
2023/01/24 00:12:45;;;;;;;45.80;28.87;;;21.20;86.90;;;;;;1899017;74;21094;-86
2023/01/24 00:15:16;;;;;;;39.90;29.75;;;21.20;86.90;;;;;;1896029;75;21262;-85
2023/01/24 00:17:48;;;;;;;40.25;29.65;;;21.20;86.90;;;;;;1902655;75;21049;-87
2023/01/24 00:20:25;;;;;;;44.58;28.12;;;21.20;87.00;;;;;;1903941;75;21078;-87
2023/01/24 00:22:56;;;;;;;45.03;27.98;;;21.20;86.80;;;;;;1898183;75;21122;-86
2023/01/24 00:25:27;;;;;;;39.92;26.75;;;21.20;86.90;;;;;;1872395;75;21080;-88
2023/01/24 00:27:58;;;;;;;46.85;26.60;;;21.20;86.80;;;;;;1906379;75;21081;-86
2023/01/24 00:30:29;;;;;;;34.92;25.00;;;21.30;86.80;;;;;;1909413;74;21136;-87
2023/01/24 00:32:59;;;;;;;38.80;24.77;;;21.30;86.40;;;;;;1898470;75;21121;-87
2023/01/24 00:35:31;;;;;;;42.30;26.85;;;21.40;86.40;;;;;;1882693;75;21064;-88
2023/01/24 00:38:02;;;;;;;37.53;24.55;;;21.40;86.10;;;;;;1879516;75;21187;-86
2023/01/24 00:40:32;;;;;;;52.98;25.32;;;21.50;85.90;;;;;;1871578;75;21510;-87
2023/01/24 00:43:03;;;;;;;39.03;23.12;;;21.60;85.50;;;;;;1894817;75;21078;-87
2023/01/24 00:45:38;;;;;;;32.90;22.27;;;21.70;85.00;;;;;;1903406;75;21110;-87
2023/01/24 00:48:11;;;;;;;36.08;21.87;;;21.80;84.90;;;;;;1893813;74;21168;-86
2023/01/24 00:50:42;;;;;;;33.10;21.25;;;21.80;84.50;;;;;;1897587;74;21144;-85
2023/01/24 00:53:12;;;;;;;36.55;22.02;;;21.90;84.10;;;;;;1903291;75;21078;-88
2023/01/24 00:55:45;;;;;;;32.28;20.85;;;22.00;83.90;;;;;;1890790;74;21176;-84
2023/01/24 00:58:16;;;;;;;33.23;20.45;;;22.10;83.70;;;;;;1876870;75;21202;-88
2023/01/24 01:00:47;;;;;;;31.52;19.98;;;22.10;83.20;;;;;;1891095;75;21056;-89
2023/01/24 01:03:20;;;;;;;30.10;19.35;;;22.20;83.00;;;;;;1874170;75;21767;-86
2023/01/24 01:05:52;;;;;;;27.98;17.82;;;22.20;82.90;;;;;;1887354;76;21083;-87
2023/01/24 01:08:23;;;;;;;29.52;18.23;;;22.30;82.60;;;;;;1883955;76;21555;-87
2023/01/24 01:10:54;;;;;;;30.37;18.10;;;22.30;82.30;;;;;;1884636;75;21091;-87
2023/01/24 01:13:26;;;;;;;25.72;16.48;;;22.30;82.10;;;;;;1879682;74;21190;-84
2023/01/24 01:16:08;;;;;;;22.75;15.98;;;22.40;82.00;;;;;;1886360;74;21185;-86
2023/01/24 01:18:40;;;;;;;24.77;17.05;;;22.40;82.00;;;;;;1885840;74;21918;-86
2023/01/24 01:21:13;;;;;;;26.77;16.25;;;22.40;81.90;;;;;;1878275;74;21055;-84
2023/01/24 01:23:43;;;;;;;27.15;16.55;;;22.50;81.80;;;;;;1880794;74;21057;-86
2023/01/24 01:26:22;;;;;;;31.27;15.98;;;22.50;81.70;;;;;;1884762;76;21722;-87
2023/01/24 01:28:53;;;;;;;20.62;14.03;;;22.60;81.60;;;;;;1883847;75;21132;-87
2023/01/24 01:31:24;;;;;;;22.42;15.70;;;22.60;81.30;;;;;;1886351;75;21211;-88
2023/01/24 01:33:55;;;;;;;21.35;14.78;;;22.60;81.40;;;;;;1882274;74;21071;-85
2023/01/24 01:36:26;;;;;;;23.83;16.35;;;22.60;81.30;;;;;;1884003;74;21158;-85
2023/01/24 01:38:58;;;;;;;26.52;15.00;;;22.70;81.20;;;;;;1895395;75;21083;-85
2023/01/24 01:41:29;;;;;;;27.48;16.82;;;22.70;81.20;;;;;;1894569;74;21173;-87
2023/01/24 01:47:31;;;;;;;27.85;16.15;;;22.80;81.30;;;;;;1895145;74;21555;-87
2023/01/24 01:50:10;;;;;;;27.58;15.65;;;22.80;81.30;;;;;;1881125;75;21064;-88
2023/01/24 01:52:44;;;;;;;24.50;16.85;;;22.90;81.40;;;;;;1849639;75;21127;-87
2023/01/24 01:55:18;;;;;;;25.97;15.05;;;23.00;81.50;;;;;;1888448;76;21201;-90
2023/01/24 01:57:52;;;;;;;22.62;14.93;;;23.00;81.30;;;;;;1884056;76;21134;-89
2023/01/24 02:00:25;;;;;;;22.35;14.90;;;23.10;81.10;;;;;;1899922;74;21493;-87
2023/01/24 02:05:59;;;;;;;21.82;14.35;;;23.20;80.80;;;;;;1887369;74;21153;-87
2023/01/24 02:08:33;;;;;;;25.20;14.18;;;23.20;80.70;;;;;;1887687;74;21746;-89
2023/01/24 02:16:02;;;;;;;22.50;13.53;;;23.30;80.40;;;;;;1886352;76;21141;-88
2023/01/24 02:16:27;;;;;;;22.62;13.08;;;23.40;80.00;;;;;;1881946;75;21102;-89
2023/01/24 02:18:58;;;;;;;21.60;12.50;;;23.50;79.70;;;;;;1870094;76;21142;-86
2023/01/24 02:21:29;;;;;;;20.20;12.80;;;23.50;79.40;;;;;;1891716;74;21023;-87
2023/01/24 02:24:02;;;;;;;20.17;13.38;;;23.50;79.20;;;;;;1887765;74;21215;-87
2023/01/24 02:26:41;;;;;;;23.95;13.05;;;23.50;79.30;;;;;;1894250;74;21152;-86
2023/01/24 02:29:15;;;;;;;19.60;12.45;;;23.60;79.30;;;;;;1889024;75;21626;-88
2023/01/24 02:31:57;;;;;;;20.65;12.35;;;23.60;79.20;;;;;;1882589;75;21131;-87
2023/01/24 02:34:29;;;;;;;17.37;11.70;;;23.60;78.90;;;;;;1917446;74;21142;-86
2023/01/24 02:37:02;;;;;;;15.53;10.08;;;23.70;79.00;;;;;;1900927;74;21101;-87
2023/01/24 02:39:48;;;;;;;18.98;11.25;;;23.80;77.80;;;;;;1882063;74;21145;-86
2023/01/24 02:42:22;;;;;;;20.70;11.48;;;23.80;78.30;;;;;;1907460;74;21736;-88
2023/01/24 02:45:13;;;;;;;19.92;12.10;;;23.90;77.90;;;;;;1871919;76;21118;-88
2023/01/24 02:47:47;;;;;;;17.77;11.90;;;23.90;77.60;;;;;;1888883;74;21143;-87
2023/01/24 02:50:22;;;;;;;19.32;11.73;;;24.00;77.40;;;;;;1887954;74;21162;-87
2023/01/24 02:58:30;;;;;;;16.35;10.80;;;24.20;76.80;;;;;;1874102;74;21193;-87
2023/01/24 03:01:01;;;;;;;16.55;10.82;;;24.20;76.60;;;;;;1899252;74;21604;-87
2023/01/24 03:03:32;;;;;;;17.32;10.53;;;24.30;76.50;;;;;;1912973;74;21182;-88
2023/01/24 03:06:03;;;;;;;20.17;11.10;;;24.40;76.30;;;;;;1884559;74;21132;-87
2023/01/24 03:08:35;;;;;;;17.80;11.20;;;24.40;76.80;;;;;;1920548;74;21098;-87
2023/01/24 03:11:06;;;;;;;19.60;10.55;;;24.50;75.80;;;;;;1889523;74;21120;-85
2023/01/24 03:36:13;;;;;;;17.30;7.28;;;25.40;71.50;;;;;;1903909;75;21160;-86
2023/01/24 03:41:29;;;;;;;13.28;6.85;;;25.70;69.60;;;;;;1905567;75;21635;-89
2023/01/24 03:44:00;;;;;;;12.00;6.60;;;25.80;69.20;;;;;;1905283;75;21082;-89
2023/01/24 03:46:32;;;;;;;10.63;6.22;;;26.00;67.90;;;;;;1906939;75;21087;-86
2023/01/24 03:49:03;;;;;;;11.33;6.50;;;26.10;67.30;;;;;;1855388;76;21587;-88
2023/01/24 03:54:23;;;;;;;12.35;6.22;;;26.20;67.20;;;;;;1902732;75;21072;-88
2023/01/24 03:56:54;;;;;;;10.95;6.17;;;26.20;67.30;;;;;;1904871;75;21562;-90
2023/01/24 03:59:24;;;;;;;12.20;6.58;;;26.20;67.00;;;;;;1905005;75;21107;-89
2023/01/24 04:01:55;;;;;;;10.82;6.15;;;26.30;66.90;;;;;;1894580;74;21536;-90
2023/01/24 04:05:12;;;;;;;17.02;6.05;;;26.30;66.20;;;;;;1904979;75;21159;-88
2023/01/24 04:06:59;;;;;;;9.48;6.28;;;26.30;66.50;;;;;;1910056;74;21514;-89
2023/01/24 04:09:31;;;;;;;13.80;5.78;;;26.40;66.70;;;;;;1891485;75;21883;-86
2023/01/24 04:12:03;;;;;;;10.43;5.33;;;26.40;66.70;;;;;;1911324;75;21051;-89
2023/01/24 04:14:39;;;;;;;11.93;5.67;;;26.50;66.40;;;;;;1881902;75;21061;-89
2023/01/24 04:17:13;;;;;;;8.35;5.15;;;26.50;66.20;;;;;;1898847;75;21538;-89
2023/01/24 04:19:47;;;;;;;12.03;6.22;;;26.60;66.50;;;;;;1877019;76;21185;-89
2023/01/24 04:22:18;;;;;;;22.10;6.17;;;26.70;66.40;;;;;;1907401;75;21068;-90
2023/01/24 04:24:51;;;;;;;9.43;4.58;;;26.80;66.30;;;;;;1909171;75;21163;-92
2023/01/24 04:27:24;;;;;;;11.28;4.83;;;26.80;64.60;;;;;;1869870;75;21257;-89
2023/01/24 04:29:56;;;;;;;17.37;7.55;;;27.00;64.30;;;;;;1898994;75;21226;-91
2023/01/24 04:32:29;;;;;;;13.10;5.28;;;27.00;63.60;;;;;;1906953;75;21502;-89
2023/01/24 04:35:00;;;;;;;13.43;4.97;;;27.00;63.80;;;;;;1880036;72;21055;-87
2023/01/24 04:37:34;;;;;;;12.37;5.28;;;;;;;;;;1872177;76;21078;-91
2023/01/24 04:40:15;;;;;;;9.28;5.30;;;27.20;63.20;;;;;;1856087;76;21178;-91
2023/01/24 04:42:48;;;;;;;13.22;5.15;;;27.30;63.70;;;;;;1878884;76;21651;-91
2023/01/24 04:45:19;;;;;;;15.25;5.30;;;27.40;63.40;;;;;;1883867;75;21186;-91
2023/01/24 04:47:50;;;;;;;16.55;5.12;;;27.40;64.10;;;;;;1883137;76;21164;-90
2023/01/24 04:50:21;;;;;;;10.70;4.47;;;;;;;;;;1884653;76;21174;-91
2023/01/24 04:52:52;;;;;;;14.05;5.22;;;27.70;61.50;;;;;;1884390;76;21593;-89
2023/01/24 04:55:23;;;;;;;20.17;6.17;;;27.80;61.70;;;;;;1884180;75;21082;-88
2023/01/24 04:57:54;;;;;;;12.03;5.72;;;28.00;61.50;;;;;;1880947;76;21151;-91
2023/01/24 05:00:25;;;;;;;14.68;4.60;;;28.10;61.50;;;;;;1884354;76;21143;-91
2023/01/24 05:02:56;;;;;;;9.68;4.60;;;28.20;60.00;;;;;;1883059;76;21088;-90
2023/01/24 05:05:27;;;;;;;9.48;4.58;;;28.30;59.90;;;;;;1884818;75;21551;-90
2023/01/24 05:07:58;;;;;;;11.53;5.75;;;28.30;59.90;;;;;;1883867;75;21107;-90
2023/01/24 05:10:48;;;;;;;8.48;5.65;;;28.40;60.00;;;;;;1884004;75;21040;-92
2023/01/24 05:13:19;;;;;;;9.90;5.17;;;28.40;59.10;;;;;;1853415;77;21181;-88
2023/01/24 05:15:52;;;;;;;10.88;5.25;;;28.50;60.00;;;;;;1845824;77;21376;-89
2023/01/24 05:18:23;;;;;;;11.50;5.58;;;28.60;59.80;;;;;;1855757;77;21206;-90
2023/01/24 05:20:54;;;;;;;10.15;5.42;;;28.70;59.90;;;;;;1863468;77;21141;-90
2023/01/24 05:23:26;;;;;;;15.68;5.42;;;28.80;59.90;;;;;;1839259;77;21085;-91
2023/01/24 05:26:01;;;;;;;10.03;4.80;;;28.80;59.40;;;;;;1853752;76;21183;-90
2023/01/24 05:28:35;;;;;;;28.90;7.55;;;29.00;58.60;;;;;;1877255;75;21080;-89
2023/01/24 05:31:08;;;;;;;15.23;5.22;;;28.90;59.10;;;;;;1846468;74;21112;-91
2023/01/24 05:33:39;;;;;;;7.85;4.47;;;29.00;58.60;;;;;;1858140;75;21419;-90
2023/01/24 05:36:15;;;;;;;10.10;4.80;;;29.10;58.70;;;;;;1849212;77;21198;-89
2023/01/24 05:38:46;;;;;;;10.30;4.77;;;29.10;58.70;;;;;;1850044;76;21080;-89
2023/01/24 05:41:19;;;;;;;9.13;4.80;;;29.10;59.00;;;;;;1861332;77;21152;-90
2023/01/24 05:43:51;;;;;;;14.20;5.78;;;29.20;58.70;;;;;;1861336;76;21138;-92
2023/01/24 05:46:24;;;;;;;9.05;5.70;;;29.10;58.80;;;;;;1868472;76;21056;-88
2023/01/24 05:48:55;;;;;;;8.40;5.03;;;29.20;59.20;;;;;;1845342;76;21559;-89
2023/01/24 05:51:30;;;;;;;10.90;5.05;;;29.10;59.10;;;;;;1862234;76;21159;-88
2023/01/24 05:54:07;;;;;;;14.90;5.37;;;29.10;58.50;;;;;;1839945;75;21411;-88
2023/01/24 05:56:45;;;;;;;14.68;5.22;;;29.10;58.40;;;;;;1864281;76;21144;-87
2023/01/24 05:59:21;;;;;;;11.88;4.75;;;29.10;58.10;;;;;;1855402;77;21696;-88
2023/01/24 06:01:52;;;;;;;9.13;4.83;;;29.00;58.30;;;;;;1852730;77;21073;-87
2023/01/24 06:04:24;;;;;;;7.28;4.90;;;28.90;58.40;;;;;;1857012;75;21093;-89
2023/01/24 06:06:55;;;;;;;8.18;4.35;;;28.80;58.50;;;;;;1836650;77;21097;-89
2023/01/24 06:09:26;;;;;;;9.60;4.62;;;28.70;58.90;;;;;;1835207;77;21451;-89
2023/01/24 06:11:57;;;;;;;6.35;4.33;;;28.60;59.20;;;;;;1855886;76;21213;-90
2023/01/24 06:14:29;;;;;;;8.63;4.55;;;28.60;59.20;;;;;;1856077;76;21681;-88
2023/01/24 06:17:00;;;;;;;6.40;4.15;;;28.60;58.70;;;;;;1863189;76;21183;-89
2023/01/24 06:19:32;;;;;;;8.58;4.58;;;28.70;59.40;;;;;;1857676;76;21189;-86
2023/01/24 06:22:05;;;;;;;9.63;4.05;;;28.80;58.50;;;;;;1845098;76;21525;-89
2023/01/24 06:24:37;;;;;;;6.92;4.15;;;28.80;58.70;;;;;;1843330;77;21092;-90
2023/01/24 06:27:09;;;;;;;7.15;4.20;;;28.90;59.00;;;;;;1845434;77;21132;-88
2023/01/24 06:29:41;;;;;;;8.93;4.17;;;28.90;58.40;;;;;;1839751;77;21135;-90
2023/01/24 06:32:26;;;;;;;11.63;4.03;;;29.00;58.50;;;;;;1849563;76;21211;-89
2023/01/24 06:35:25;;;;;;;9.90;4.50;;;29.10;58.50;;;;;;1862639;76;21170;-88
2023/01/24 06:37:57;;;;;;;7.12;3.90;;;29.10;58.40;;;;;;1854183;76;21226;-87
2023/01/24 06:40:30;;;;;;;6.47;4.12;;;29.10;58.20;;;;;;1850366;77;21172;-92
2023/01/24 06:43:01;;;;;;;12.23;4.72;;;29.10;58.20;;;;;;1850824;75;21199;-92
2023/01/24 06:45:34;;;;;;;7.25;4.20;;;29.10;58.00;;;;;;1845614;77;21065;-89
2023/01/24 06:48:06;;;;;;;7.70;3.50;;;29.10;57.40;;;;;;1846659;76;21218;-90
2023/01/24 06:50:37;;;;;;;7.15;4.25;;;29.10;57.70;;;;;;1849313;77;21540;-89
2023/01/24 06:53:08;;;;;;;12.50;4.42;;;29.10;57.80;;;;;;1853207;77;21057;-89
2023/01/24 06:55:39;;;;;;;7.10;4.28;;;29.10;58.30;;;;;;1854408;76;21073;-89
2023/01/24 06:58:10;;;;;;;7.53;4.28;;;29.10;58.60;;;;;;1861515;77;21587;-90
2023/01/24 07:00:41;;;;;;;10.82;5.00;;;29.10;58.50;;;;;;1861128;76;21097;-87
2023/01/24 07:03:12;;;;;;;7.45;4.33;;;29.10;58.40;;;;;;1852451;77;21343;-88
2023/01/24 07:05:43;;;;;;;6.72;3.90;;;29.10;58.70;;;;;;1840379;77;21096;-89
2023/01/24 07:08:14;;;;;;;9.08;5.50;;;29.20;58.50;;;;;;1841549;77;21081;-91
2023/01/24 07:10:46;;;;;;;6.58;4.70;;;29.20;58.20;;;;;;1855285;76;21195;-88
2023/01/24 07:13:18;;;;;;;7.45;4.80;;;29.20;58.30;;;;;;1855920;76;21071;-88
2023/01/24 07:15:49;;;;;;;7.85;4.62;;;29.20;58.40;;;;;;1892054;74;21606;-88
2023/01/24 07:18:21;;;;;;;8.05;4.92;;;29.10;58.10;;;;;;1879060;75;21197;-88
2023/01/24 07:20:53;;;;;;;8.15;4.72;;;29.00;58.20;;;;;;1884736;74;21173;-87
2023/01/24 07:23:32;;;;;;;10.13;4.85;;;28.90;58.60;;;;;;1886352;76;21241;-88
2023/01/24 07:26:00;;;;;;;9.10;5.12;;;28.80;59.20;;;;;;1876589;75;21697;-89
2023/01/24 07:28:31;;;;;;;9.98;5.37;;;28.70;59.60;;;;;;1844607;76;21154;-89
2023/01/24 07:31:02;;;;;;;9.78;5.40;;;28.60;59.50;;;;;;1864700;76;21225;-89
2023/01/24 07:33:37;;;;;;;9.73;5.50;;;28.60;59.70;;;;;;1884303;75;21154;-90
2023/01/24 07:36:16;;;;;;;9.05;5.00;;;28.50;59.80;;;;;;1882333;75;21272;-90
2023/01/24 07:38:55;;;;;;;10.00;4.83;;;28.50;59.70;;;;;;1883766;75;21154;-89
2023/01/24 07:41:26;;;;;;;8.45;5.00;;;28.40;60.20;;;;;;1879220;75;21087;-90
2023/01/24 07:43:58;;;;;;;10.32;4.75;;;28.40;59.90;;;;;;1882158;74;21162;-87
2023/01/24 07:46:28;;;;;;;12.18;5.15;;;28.30;59.70;;;;;;1896405;74;21228;-87
2023/01/24 07:49:00;;;;;;;7.78;4.85;;;28.30;60.30;;;;;;1890207;74;21083;-89
2023/01/24 07:51:31;;;;;;;11.65;6.40;;;28.30;60.40;;;;;;1889391;74;21183;-90
2023/01/24 07:54:02;;;;;;;9.60;5.17;;;28.30;60.60;;;;;;1895130;74;21119;-88
2023/01/24 07:56:33;;;;;;;11.38;5.28;;;28.30;60.70;;;;;;1897148;74;21139;-87
2023/01/24 07:59:04;;;;;;;13.55;5.42;;;28.30;60.60;;;;;;1886360;74;21543;-87
2023/01/24 08:01:35;;;;;;;10.03;4.95;;;28.30;60.70;;;;;;1879276;75;21250;-88
2023/01/24 08:04:07;;;;;;;7.20;4.70;;;28.30;61.90;;;;;;1908514;74;21654;-90
2023/01/24 08:07:16;;;;;;;9.35;5.17;;;28.30;61.00;;;;;;1893355;74;21134;-88
2023/01/24 08:09:12;;;;;;;9.45;5.12;;;28.20;61.10;;;;;;1896686;74;21190;-89
2023/01/24 08:11:43;;;;;;;11.40;5.08;;;28.20;61.30;;;;;;1881646;74;21114;-89
2023/01/24 08:14:22;;;;;;;9.03;5.30;;;28.20;61.30;;;;;;1818693;77;21219;-90
2023/01/24 08:16:53;;;;;;;12.85;5.30;;;28.20;61.40;;;;;;1850386;76;21380;-87
2023/01/24 08:19:25;;;;;;;10.85;5.03;;;28.20;61.30;;;;;;1878338;75;21200;-88
2023/01/24 08:21:57;;;;;;;11.95;4.70;;;28.20;61.00;;;;;;1869059;76;21196;-86
2023/01/24 08:24:28;;;;;;;8.98;4.97;;;28.20;60.80;;;;;;1865068;76;21214;-88
2023/01/24 08:27:00;;;;;;;7.85;4.72;;;28.20;60.90;;;;;;1872169;76;21063;-85
2023/01/24 08:29:31;;;;;;;7.83;4.62;;;28.20;59.40;;;;;;1887848;74;21166;-87
2023/01/24 08:32:11;;;;;;;9.88;5.03;;;28.20;58.90;;;;;;1886499;76;21116;-84
2023/01/24 08:34:42;;;;;;;10.20;5.37;;;28.20;59.00;;;;;;1883655;75;21138;-83
2023/01/24 08:37:13;;;;;;;14.55;6.03;;;28.10;59.20;;;;;;1816120;76;21102;-85
2023/01/24 08:39:44;;;;;;;8.40;4.67;;;28.10;59.30;;;;;;1831387;78;21116;-89
2023/01/24 08:42:16;;;;;;;9.88;4.78;;;28.10;59.00;;;;;;1878541;75;21084;-87
2023/01/24 08:44:47;;;;;;;11.85;5.08;;;28.10;59.10;;;;;;1886198;75;21159;-87
2023/01/24 08:47:18;;;;;;;11.95;5.53;;;28.20;59.00;;;;;;1858532;77;21097;-86
2023/01/24 08:49:51;;;;;;;9.93;4.67;;;28.20;59.10;;;;;;1819588;78;21222;-84
2023/01/24 08:52:22;;;;;;;10.05;4.47;;;28.10;59.00;;;;;;1864008;76;21091;-86
2023/01/24 08:54:53;;;;;;;9.25;5.00;;;28.10;58.30;;;;;;1870878;75;21130;-87
2023/01/24 08:57:24;;;;;;;13.20;4.72;;;28.10;58.50;;;;;;1868826;75;21222;-86
2023/01/24 08:59:56;;;;;;;7.42;4.65;;;28.10;58.60;;;;;;1880596;75;21095;-88
2023/01/24 09:02:28;;;;;;;11.50;4.87;;;28.10;58.30;;;;;;1881313;74;21127;-86
2023/01/24 09:05:00;;;;;;;12.30;5.75;;;28.10;58.30;;;;;;1889196;74;21150;-87
2023/01/24 09:07:32;;;;;;;15.10;5.08;;;28.20;58.20;;;;;;1871256;75;21197;-89
2023/01/24 09:10:04;;;;;;;10.50;5.17;;;28.20;57.90;;;;;;1872638;75;21114;-88
2023/01/24 09:12:36;;;;;;;8.88;4.72;;;28.20;58.20;;;;;;1867946;75;21153;-88
2023/01/24 09:15:09;;;;;;;13.88;4.87;;;28.10;58.40;;;;;;1841115;77;21229;-87
2023/01/24 09:18:02;;;;;;;6.87;4.22;;;28.10;58.80;;;;;;1856537;77;21218;-88
2023/01/24 09:20:34;;;;;;;7.90;4.05;;;28.10;58.10;;;;;;1847387;77;21118;-87
2023/01/24 09:23:14;;;;;;;9.98;4.97;;;28.10;57.90;;;;;;1863874;77;21046;-87
2023/01/24 09:25:53;;;;;;;10.08;4.03;;;28.10;58.00;;;;;;1854397;76;21076;-86
2023/01/24 09:28:23;;;;;;;7.08;4.50;;;28.10;57.90;;;;;;1854931;76;21121;-87
2023/01/24 09:30:55;;;;;;;8.50;4.35;;;28.10;57.60;;;;;;1836687;77;21213;-89
2023/01/24 09:33:26;;;;;;;7.65;4.17;;;28.00;57.50;;;;;;1859465;77;21147;-87
2023/01/24 09:35:59;;;;;;;11.08;4.35;;;28.00;57.50;;;;;;1872235;75;21168;-87
2023/01/24 09:38:35;;;;;;;8.85;4.42;;;28.00;57.60;;;;;;1863285;76;21135;-88
2023/01/24 09:41:11;;;;;;;9.45;4.22;;;28.00;57.80;;;;;;1838804;78;21116;-88
2023/01/24 09:43:48;;;;;;;10.17;4.40;;;27.90;57.90;;;;;;1867067;77;21167;-87
2023/01/24 09:46:28;;;;;;;9.60;4.37;;;27.80;58.70;;;;;;1858785;75;21143;-84
2023/01/24 09:49:12;;;;;;;6.67;4.15;;;27.80;58.00;;;;;;1857811;76;21123;-86
2023/01/24 09:51:47;;;;;;;11.28;4.35;;;27.80;58.00;;;;;;1863666;76;21073;-84
2023/01/24 09:54:35;;;;;;;8.63;4.08;;;27.70;57.60;;;;;;1844738;77;21131;-87
2023/01/24 09:57:14;;;;;;;8.95;4.08;;;27.60;57.50;;;;;;1848334;76;21209;-86
2023/01/24 09:59:49;;;;;;;7.35;3.52;;;27.60;57.70;;;;;;1848817;75;21124;-87
2023/01/24 10:02:24;;;;;;;10.30;3.80;;;27.60;57.70;;;;;;1862306;77;21139;-85
2023/01/24 10:04:55;;;;;;;6.15;3.30;;;27.60;57.50;;;;;;1861181;77;21096;-86
2023/01/24 10:07:47;;;;;;;7.80;3.42;;;27.60;57.40;;;;;;1847903;77;21171;-84
2023/01/24 10:10:32;;;;;;;4.87;3.22;;;27.50;57.40;;;;;;1861724;77;21525;-84
2023/01/24 10:13:31;;;;;;;5.40;3.62;;;27.50;57.60;;;;;;1862475;77;21163;-91
2023/01/24 10:16:21;;;;;;;8.68;4.25;;;27.50;57.90;;;;;;1883719;75;21607;-92
2023/01/24 10:19:12;;;;;;;7.87;4.15;;;27.40;58.10;;;;;;1883303;74;21119;-89
2023/01/24 10:21:45;;;;;;;9.55;4.85;;;27.40;58.40;;;;;;1892953;74;21176;-87
2023/01/24 10:24:24;;;;;;;11.55;5.15;;;27.40;58.80;;;;;;1888261;74;21073;-89
2023/01/24 10:26:56;;;;;;;8.05;4.10;;;27.30;58.80;;;;;;1870283;74;21894;-91
2023/01/24 10:29:29;;;;;;;12.58;3.90;;;27.30;58.80;;;;;;1881279;75;21079;-90
2023/01/24 10:32:08;;;;;;;13.70;5.42;;;27.30;58.90;;;;;;1896521;74;21139;-91
2023/01/24 10:34:44;;;;;;;7.58;4.00;;;27.20;58.80;;;;;;1870924;74;21173;-88
2023/01/24 10:37:24;;;;;;;11.45;4.42;;;27.20;58.90;;;;;;1864454;76;21709;-91
2023/01/24 10:39:55;;;;;;;9.80;4.60;;;27.10;59.00;;;;;;1839065;77;21375;-89
2023/01/24 10:42:30;;;;;;;7.08;4.03;;;27.10;59.00;;;;;;1859037;77;21093;-89
2023/01/24 10:45:03;;;;;;;6.72;4.20;;;27.00;58.80;;;;;;1849645;77;21194;-91
2023/01/24 10:47:56;;;;;;;10.35;3.83;;;27.00;58.80;;;;;;1856019;75;21156;-91
2023/01/24 10:50:35;;;;;;;11.78;5.97;;;27.00;58.90;;;;;;1847265;76;21517;-91
2023/01/24 10:53:15;;;;;;;12.07;5.50;;;26.90;59.20;;;;;;1879259;74;21212;-90
2023/01/24 10:55:49;;;;;;;9.65;5.00;;;26.80;59.30;;;;;;1875685;74;21159;-91
2023/01/24 10:58:43;;;;;;;12.65;5.05;;;26.80;59.50;;;;;;1838899;77;21576;-91
2023/01/24 11:01:19;;;;;;;8.45;4.67;;;26.80;59.60;;;;;;1826046;77;21246;-88
2023/01/24 11:03:54;;;;;;;7.67;3.90;;;26.70;59.70;;;;;;1853327;77;21072;-86
2023/01/24 11:06:27;;;;;;;13.78;5.95;;;26.60;59.70;;;;;;1839618;77;21662;-91
2023/01/24 11:09:03;;;;;;;15.65;6.87;;;26.60;60.40;;;;;;1832584;77;21057;-89
2023/01/24 11:11:39;;;;;;;30.90;7.50;;;26.50;61.50;;;;;;1830962;78;21176;-87
2023/01/24 11:14:13;;;;;;;11.57;6.80;;;26.50;62.30;;;;;;1814040;77;21165;-89
2023/01/24 11:16:48;;;;;;;14.13;7.08;;;26.40;62.60;;;;;;1784922;80;21146;-88
2023/01/24 11:19:27;;;;;;;30.55;7.65;;;26.20;62.90;;;;;;1788676;78;21477;-89
2023/01/24 11:22:01;;;;;;;14.75;6.37;;;26.20;62.40;;;;;;1770256;80;21111;-88
2023/01/24 11:24:36;;;;;;;16.50;6.17;;;26.10;62.40;;;;;;1772706;80;21268;-88
2023/01/24 11:27:18;;;;;;;16.20;6.35;;;26.00;61.70;;;;;;1765661;80;21099;-88
2023/01/24 11:30:09;;;;;;;11.12;6.17;;;25.90;61.10;;;;;;1779437;80;21221;-89
2023/01/24 11:32:58;;;;;;;9.93;6.00;;;25.80;61.20;;;;;;1737421;81;21113;-88
2023/01/24 11:35:34;;;;;;;11.63;6.12;;;25.80;61.40;;;;;;1748183;82;21177;-87
2023/01/24 11:38:26;;;;;;;16.55;6.20;;;25.70;62.80;;;;;;1825924;78;21208;-87
2023/01/24 11:41:03;;;;;;;15.30;6.35;;;25.60;61.60;;;;;;1787392;79;21146;-87
2023/01/24 11:43:45;;;;;;;24.25;6.80;;;25.50;61.90;;;;;;1775636;80;21116;-88
2023/01/24 11:46:22;;;;;;;12.35;6.62;;;25.50;61.90;;;;;;1755300;80;21100;-86
2023/01/24 11:48:59;;;;;;;16.65;6.75;;;25.40;62.20;;;;;;1753650;81;21594;-87
2023/01/24 11:51:55;;;;;;;13.48;5.97;;;25.30;62.30;;;;;;1813324;77;21203;-88
2023/01/24 11:54:37;;;;;;;12.40;6.80;;;25.20;62.40;;;;;;1760047;80;21165;-88
2023/01/24 11:57:14;;;;;;;18.37;6.17;;;25.20;62.70;;;;;;1753725;80;21154;-88
2023/01/24 11:59:47;;;;;;;10.78;6.50;;;25.10;62.90;;;;;;1764422;80;21225;-89
2023/01/24 12:02:48;;;;;;;11.57;6.22;;;25.00;62.90;;;;;;1768645;78;21103;-87
2023/01/24 12:05:28;;;;;;;18.62;6.80;;;25.00;63.00;;;;;;1852604;76;21546;-87
2023/01/24 12:08:23;;;;;;;9.28;6.42;;;24.90;63.20;;;;;;1831827;77;21098;-88
2023/01/24 12:11:11;;;;;;;18.17;7.03;;;24.80;63.40;;;;;;1860067;76;21175;-89
2023/01/24 12:13:58;;;;;;;14.95;5.95;;;24.80;63.60;;;;;;1836159;76;21153;-88
2023/01/24 12:16:31;;;;;;;12.80;6.97;;;24.70;63.70;;;;;;1834126;77;21057;-88
2023/01/24 12:19:29;;;;;;;13.18;6.67;;;24.70;64.10;;;;;;1863421;76;21068;-88
2023/01/24 12:22:01;;;;;;;15.10;7.12;;;24.60;64.00;;;;;;1850265;76;21081;-88
2023/01/24 12:24:39;;;;;;;14.80;7.35;;;24.60;64.10;;;;;;1869590;76;21646;-89
2023/01/24 12:27:19;;;;;;;9.45;6.83;;;24.50;64.40;;;;;;1857388;76;21084;-88
2023/01/24 12:30:04;;;;;;;15.85;7.25;;;24.50;64.60;;;;;;1858942;76;21085;-88
2023/01/24 12:32:58;;;;;;;19.87;7.72;;;24.40;64.80;;;;;;1861045;76;21119;-88
2023/01/24 12:35:31;;;;;;;12.18;6.80;;;24.40;65.00;;;;;;1877509;76;21135;-87
2023/01/24 12:38:07;;;;;;;15.55;6.83;;;24.30;65.20;;;;;;1867840;76;21073;-86
2023/01/24 12:40:41;;;;;;;19.07;6.50;;;24.30;65.60;;;;;;1857297;77;21123;-88
2023/01/24 12:43:24;;;;;;;14.58;7.55;;;24.20;65.70;;;;;;1852972;77;21050;-87
2023/01/24 12:46:06;;;;;;;14.18;6.37;;;24.20;66.00;;;;;;1855637;74;21155;-88
2023/01/24 12:49:04;;;;;;;12.63;6.37;;;24.20;66.10;;;;;;1842536;77;21092;-87
2023/01/24 12:51:51;;;;;;;13.05;6.10;;;24.10;66.00;;;;;;1837611;76;21108;-85
2023/01/24 12:54:40;;;;;;;12.28;6.92;;;24.10;65.50;;;;;;1843826;77;21083;-87
2023/01/24 12:57:13;;;;;;;19.37;6.53;;;24.00;65.10;;;;;;1834315;77;21144;-86
2023/01/24 12:59:45;;;;;;;10.18;5.28;;;24.00;65.00;;;;;;1837857;77;21138;-88
2023/01/24 13:02:39;;;;;;;13.45;5.60;;;23.90;64.60;;;;;;1881550;75;21489;-88
2023/01/24 13:05:48;;;;;;;11.48;4.70;;;23.90;64.60;;;;;;1866176;76;21085;-86
2023/01/24 13:08:25;;;;;;;10.30;5.00;;;23.80;64.00;;;;;;1861644;76;21164;-86
2023/01/24 13:11:10;;;;;;;9.03;4.78;;;23.70;63.80;;;;;;1840361;77;21183;-88
2023/01/24 13:13:45;;;;;;;12.03;5.10;;;23.70;63.70;;;;;;1848210;76;21143;-86
2023/01/24 13:16:33;;;;;;;7.00;4.33;;;23.60;63.70;;;;;;1840544;75;21201;-89
2023/01/24 13:19:22;;;;;;;12.47;5.67;;;23.50;63.70;;;;;;1792931;79;21157;-89
2023/01/24 13:21:57;;;;;;;9.40;4.47;;;23.50;65.00;;;;;;1815650;77;21094;-88
2023/01/24 13:24:48;;;;;;;8.95;4.62;;;23.40;63.90;;;;;;1788246;79;22492;-88
2023/01/24 13:27:27;;;;;;;10.68;5.25;;;23.40;64.00;;;;;;1843604;77;21653;-88
2023/01/24 13:30:07;;;;;;;13.50;5.50;;;23.40;64.00;;;;;;1807711;78;21077;-88
2023/01/24 13:32:39;;;;;;;9.50;5.00;;;23.30;63.90;;;;;;1818494;78;21136;-87
2023/01/24 13:35:24;;;;;;;7.55;4.92;;;23.30;64.00;;;;;;1837250;78;21070;-87
2023/01/24 13:37:57;;;;;;;11.43;5.05;;;23.30;64.00;;;;;;1851283;76;21141;-89
2023/01/24 13:40:34;;;;;;;11.25;4.87;;;23.20;64.20;;;;;;1816825;77;21718;-88
2023/01/24 13:43:03;;;;;;;9.93;5.20;;;23.10;64.10;;;;;;1829057;76;21558;-89
2023/01/24 13:45:47;;;;;;;10.95;5.67;;;23.10;64.30;;;;;;1794768;79;21177;-88
2023/01/24 13:48:43;;;;;;;12.55;5.83;;;23.10;64.40;;;;;;1833700;77;21180;-88
2023/01/24 13:51:32;;;;;;;8.68;5.92;;;23.00;64.40;;;;;;1815918;77;21672;-88
2023/01/24 13:54:19;;;;;;;9.50;5.15;;;23.00;64.60;;;;;;1793214;79;21154;-88
2023/01/24 13:57:24;;;;;;;9.48;5.33;;;23.00;64.70;;;;;;1812965;75;21156;-88
2023/01/24 14:00:13;;;;;;;10.38;5.15;;;23.00;64.60;;;;;;1760101;80;21367;-88
2023/01/24 14:03:07;;;;;;;8.18;5.10;;;22.90;64.70;;;;;;1820222;78;21089;-87